Terminal Aerodrome Forecast
Issued by NWS

Home | Current Version | Previous Version | Text Only | Print | Product List | Glossary On
Versions: 1 2 3 4 5 6 7 8 9 10 11 12 13 14 15 16 17
000
FTUS45 KRIW 191100
TAFBPI
TAF
KBPI 191121Z 1912/2012 VRB05KT P6SM VCSH SCT030 OVC045
     FM191500 07006KT P6SM -RA OVC025
     FM200000 02006KT P6SM VCSH OVC035
     FM200300 01006KT P6SM OVC040
     FM200900 VRB05KT P6SM VCFG BKN035=

USA.gov is the U.S. government's official web portal to all federal, state and local government web resources and services.